Terminal Aerodrome Forecast
Issued by NWS

Home | Current Version | Previous Version | Text Only | Print | Product List | Glossary On
Versions: 1 2 3 4 5 6 7 8 9 10 11 12 13 14 15 16
000
FTUS46 KPDT 310531
TAFALW
TAF
KALW 310531Z 3106/0106 22012KT P6SM SCT090
     FM310800 22008KT P6SM FEW080 SCT250
     FM311000 12007KT P6SM SCT100 BKN250
     FM311800 25012KT P6SM BKN250
     FM010200 22008KT P6SM BKN250=

USA.gov is the U.S. government's official web portal to all federal, state and local government web resources and services.